sensor_id;sensor_type;location;lat;lon;timestamp;pressure;altitude;pressure_sealevel;temperature;humidity
20971;BME280;10644;48.834;10.088;2024-03-08T00:01:00;96607.72;;;6.41;61.11
20971;BME280;10644;48.834;10.088;2024-03-08T00:03:25;96604.47;;;6.37;60.89
20971;BME280;10644;48.834;10.088;2024-03-08T00:05:50;96599.13;;;6.23;60.88
20971;BME280;10644;48.834;10.088;2024-03-08T00:08:18;96599.88;;;6.25;61.35
20971;BME280;10644;48.834;10.088;2024-03-08T00:10:44;96597.34;;;6.25;61.15
20971;BME280;10644;48.834;10.088;2024-03-08T00:13:09;96591.44;;;6.25;61.20
20971;BME280;10644;48.834;10.088;2024-03-08T00:15:35;96602.56;;;6.22;61.11
20971;BME280;10644;48.834;10.088;2024-03-08T00:18:03;96603.00;;;6.53;60.73
20971;BME280;10644;48.834;10.088;2024-03-08T00:20:28;96597.41;;;6.45;60.16
20971;BME280;10644;48.834;10.088;2024-03-08T00:22:56;96602.13;;;6.33;61.01
20971;BME280;10644;48.834;10.088;2024-03-08T00:25:23;96595.97;;;6.38;60.53
20971;BME280;10644;48.834;10.088;2024-03-08T00:27:48;96601.47;;;6.28;60.73
20971;BME280;10644;48.834;10.088;2024-03-08T00:30:14;96595.44;;;6.30;60.85
20971;BME280;10644;48.834;10.088;2024-03-08T00:32:40;96584.84;;;6.19;61.11
20971;BME280;10644;48.834;10.088;2024-03-08T00:35:06;96587.22;;;6.02;61.95
20971;BME280;10644;48.834;10.088;2024-03-08T00:37:36;96577.38;;;6.16;60.98
20971;BME280;10644;48.834;10.088;2024-03-08T00:40:04;96569.84;;;6.13;60.95
20971;BME280;10644;48.834;10.088;2024-03-08T00:42:34;96564.88;;;6.10;61.03
20971;BME280;10644;48.834;10.088;2024-03-08T00:45:00;96577.00;;;6.25;60.75
20971;BME280;10644;48.834;10.088;2024-03-08T00:47:25;96567.13;;;6.39;60.28
20971;BME280;10644;48.834;10.088;2024-03-08T00:49:51;96567.97;;;6.38;59.97
20971;BME280;10644;48.834;10.088;2024-03-08T00:52:16;96562.97;;;6.37;60.19
20971;BME280;10644;48.834;10.088;2024-03-08T00:54:45;96565.47;;;6.58;59.69
20971;BME280;10644;48.834;10.088;2024-03-08T00:57:11;96563.22;;;6.72;59.44
20971;BME280;10644;48.834;10.088;2024-03-08T00:59:38;96558.31;;;6.68;59.24
20971;BME280;10644;48.834;10.088;2024-03-08T01:02:06;96558.56;;;6.82;58.78
20971;BME280;10644;48.834;10.088;2024-03-08T01:04:31;96552.53;;;6.84;58.55
20971;BME280;10644;48.834;10.088;2024-03-08T01:06:58;96556.41;;;6.93;58.37
20971;BME280;10644;48.834;10.088;2024-03-08T01:09:25;96560.91;;;6.86;57.99
20971;BME280;10644;48.834;10.088;2024-03-08T01:11:51;96547.19;;;6.90;57.98
20971;BME280;10644;48.834;10.088;2024-03-08T01:14:18;96554.28;;;6.82;57.90
20971;BME280;10644;48.834;10.088;2024-03-08T01:16:43;96545.53;;;6.69;58.56
20971;BME280;10644;48.834;10.088;2024-03-08T01:19:08;96541.03;;;6.34;59.41
20971;BME280;10644;48.834;10.088;2024-03-08T01:21:34;96542.78;;;6.32;60.08
20971;BME280;10644;48.834;10.088;2024-03-08T01:24:00;96543.66;;;6.11;60.28
20971;BME280;10644;48.834;10.088;2024-03-08T01:26:25;96524.84;;;6.15;60.44
20971;BME280;10644;48.834;10.088;2024-03-08T01:28:50;96529.13;;;6.15;60.71
20971;BME280;10644;48.834;10.088;2024-03-08T01:31:15;96534.84;;;5.98;60.96
20971;BME280;10644;48.834;10.088;2024-03-08T01:33:41;96526.94;;;5.84;61.47
20971;BME280;10644;48.834;10.088;2024-03-08T01:36:07;96517.84;;;5.77;61.24
20971;BME280;10644;48.834;10.088;2024-03-08T01:38:32;96522.91;;;6.00;61.20
20971;BME280;10644;48.834;10.088;2024-03-08T01:40:58;96520.00;;;5.88;61.60
20971;BME280;10644;48.834;10.088;2024-03-08T01:43:28;96502.97;;;5.90;61.10
20971;BME280;10644;48.834;10.088;2024-03-08T01:45:55;96499.59;;;6.11;60.63
20971;BME280;10644;48.834;10.088;2024-03-08T01:48:25;96496.91;;;6.35;59.61
20971;BME280;10644;48.834;10.088;2024-03-08T01:50:52;96497.44;;;5.80;61.39
20971;BME280;10644;48.834;10.088;2024-03-08T01:53:18;96491.94;;;5.46;62.54
20971;BME280;10644;48.834;10.088;2024-03-08T01:55:48;96491.84;;;5.49;62.47
20971;BME280;10644;48.834;10.088;2024-03-08T01:58:14;96485.78;;;5.30;62.90
20971;BME280;10644;48.834;10.088;2024-03-08T02:00:44;96476.00;;;5.43;62.68
20971;BME280;10644;48.834;10.088;2024-03-08T02:03:10;96472.09;;;5.56;62.50
20971;BME280;10644;48.834;10.088;2024-03-08T02:05:37;96472.22;;;5.53;62.35
20971;BME280;10644;48.834;10.088;2024-03-08T02:08:04;96471.75;;;5.43;62.99
20971;BME280;10644;48.834;10.088;2024-03-08T02:10:33;96466.97;;;5.57;62.28
20971;BME280;10644;48.834;10.088;2024-03-08T02:12:59;96472.28;;;5.51;62.33
20971;BME280;10644;48.834;10.088;2024-03-08T02:15:26;96463.63;;;5.78;61.42
20971;BME280;10644;48.834;10.088;2024-03-08T02:17:53;96449.56;;;5.91;61.08
20971;BME280;10644;48.834;10.088;2024-03-08T02:20:19;96454.38;;;6.19;60.75
20971;BME280;10644;48.834;10.088;2024-03-08T02:22:48;96452.66;;;5.99;60.73
20971;BME280;10644;48.834;10.088;2024-03-08T02:25:15;96456.34;;;6.12;60.31
20971;BME280;10644;48.834;10.088;2024-03-08T02:27:41;96448.31;;;5.58;61.79
20971;BME280;10644;48.834;10.088;2024-03-08T02:30:08;96459.25;;;5.60;61.95
20971;BME280;10644;48.834;10.088;2024-03-08T02:32:34;96453.56;;;5.75;61.73
20971;BME280;10644;48.834;10.088;2024-03-08T02:35:00;96459.06;;;5.86;61.23
20971;BME280;10644;48.834;10.088;2024-03-08T02:37:28;96454.66;;;5.91;61.55
20971;BME280;10644;48.834;10.088;2024-03-08T02:39:54;96445.31;;;6.12;60.98
20971;BME280;10644;48.834;10.088;2024-03-08T02:42:21;96438.41;;;6.15;59.88
20971;BME280;10644;48.834;10.088;2024-03-08T02:44:46;96446.56;;;6.23;60.25
20971;BME280;10644;48.834;10.088;2024-03-08T02:47:12;96438.03;;;6.24;60.54
20971;BME280;10644;48.834;10.088;2024-03-08T02:49:37;96434.34;;;6.31;59.65
20971;BME280;10644;48.834;10.088;2024-03-08T02:52:04;96430.75;;;6.37;59.54
20971;BME280;10644;48.834;10.088;2024-03-08T02:54:30;96432.69;;;6.30;59.47
20971;BME280;10644;48.834;10.088;2024-03-08T02:56:55;96430.03;;;6.13;59.75
20971;BME280;10644;48.834;10.088;2024-03-08T02:59:21;96434.56;;;5.85;60.69
20971;BME280;10644;48.834;10.088;2024-03-08T03:01:46;96436.56;;;5.77;61.05
20971;BME280;10644;48.834;10.088;2024-03-08T03:04:12;96422.50;;;5.90;60.19
20971;BME280;10644;48.834;10.088;2024-03-08T03:06:38;96433.31;;;5.95;60.88
20971;BME280;10644;48.834;10.088;2024-03-08T03:09:03;96421.50;;;5.94;60.91
20971;BME280;10644;48.834;10.088;2024-03-08T03:11:31;96427.94;;;5.38;62.13
20971;BME280;10644;48.834;10.088;2024-03-08T03:13:59;96425.78;;;5.28;62.84
20971;BME280;10644;48.834;10.088;2024-03-08T03:16:25;96413.97;;;4.82;64.46
20971;BME280;10644;48.834;10.088;2024-03-08T03:18:50;96419.59;;;4.90;64.13
20971;BME280;10644;48.834;10.088;2024-03-08T03:21:15;96418.16;;;4.83;64.32
20971;BME280;10644;48.834;10.088;2024-03-08T03:23:42;96421.00;;;4.74;65.00
20971;BME280;10644;48.834;10.088;2024-03-08T03:26:08;96420.03;;;4.78;65.22
20971;BME280;10644;48.834;10.088;2024-03-08T03:28:36;96422.63;;;4.77;65.05
20971;BME280;10644;48.834;10.088;2024-03-08T03:31:06;96420.44;;;4.91;64.56
20971;BME280;10644;48.834;10.088;2024-03-08T03:33:31;96415.31;;;4.92;64.41
20971;BME280;10644;48.834;10.088;2024-03-08T03:35:59;96421.31;;;5.34;63.44
20971;BME280;10644;48.834;10.088;2024-03-08T03:38:24;96420.56;;;5.32;63.78
20971;BME280;10644;48.834;10.088;2024-03-08T03:40:51;96415.66;;;5.49;62.89
20971;BME280;10644;48.834;10.088;2024-03-08T03:43:21;96410.59;;;5.49;62.92
20971;BME280;10644;48.834;10.088;2024-03-08T03:45:49;96404.75;;;5.24;63.17
20971;BME280;10644;48.834;10.088;2024-03-08T03:48:14;96407.34;;;5.23;63.77
20971;BME280;10644;48.834;10.088;2024-03-08T03:50:39;96416.88;;;5.39;63.17
20971;BME280;10644;48.834;10.088;2024-03-08T03:53:05;96410.22;;;5.37;63.24
20971;BME280;10644;48.834;10.088;2024-03-08T03:55:34;96408.19;;;5.23;64.05
20971;BME280;10644;48.834;10.088;2024-03-08T03:57:59;96401.81;;;5.13;64.35
20971;BME280;10644;48.834;10.088;2024-03-08T04:00:26;96396.81;;;5.12;64.58
20971;BME280;10644;48.834;10.088;2024-03-08T04:02:52;96403.91;;;5.02;64.91
20971;BME280;10644;48.834;10.088;2024-03-08T04:05:18;96390.91;;;4.88;65.48
20971;BME280;10644;48.834;10.088;2024-03-08T04:07:43;96381.38;;;4.49;66.78
20971;BME280;10644;48.834;10.088;2024-03-08T04:10:11;96392.44;;;4.46;67.42
20971;BME280;10644;48.834;10.088;2024-03-08T04:12:37;96388.00;;;4.53;66.64
20971;BME280;10644;48.834;10.088;2024-03-08T04:15:03;96392.22;;;4.52;67.65
20971;BME280;10644;48.834;10.088;2024-03-08T04:17:30;96388.84;;;4.53;67.38
20971;BME280;10644;48.834;10.088;2024-03-08T04:19:55;96382.88;;;4.77;66.30
20971;BME280;10644;48.834;10.088;2024-03-08T04:22:22;96382.75;;;4.80;66.26
20971;BME280;10644;48.834;10.088;2024-03-08T04:24:48;96383.41;;;4.62;66.98
20971;BME280;10644;48.834;10.088;2024-03-08T04:27:14;96379.22;;;4.38;67.91
20971;BME280;10644;48.834;10.088;2024-03-08T04:29:39;96371.56;;;4.40;68.09
20971;BME280;10644;48.834;10.088;2024-03-08T04:32:06;96381.31;;;4.50;67.93
20971;BME280;10644;48.834;10.088;2024-03-08T04:34:34;96371.41;;;4.67;66.86
20971;BME280;10644;48.834;10.088;2024-03-08T04:37:03;96381.78;;;4.61;67.21
20971;BME280;10644;48.834;10.088;2024-03-08T04:39:30;96370.97;;;4.56;67.46
20971;BME280;10644;48.834;10.088;2024-03-08T04:41:59;96377.44;;;4.40;67.81
20971;BME280;10644;48.834;10.088;2024-03-08T04:44:28;96381.38;;;4.49;67.59
20971;BME280;10644;48.834;10.088;2024-03-08T04:46:53;96382.19;;;4.26;68.58
20971;BME280;10644;48.834;10.088;2024-03-08T04:49:19;96389.88;;;4.48;68.02
20971;BME280;10644;48.834;10.088;2024-03-08T04:51:46;96384.53;;;4.55;67.28
20971;BME280;10644;48.834;10.088;2024-03-08T04:54:14;96382.75;;;4.57;67.21
20971;BME280;10644;48.834;10.088;2024-03-08T04:56:39;96370.50;;;4.68;67.07
20971;BME280;10644;48.834;10.088;2024-03-08T04:59:05;96375.28;;;4.54;67.67
20971;BME280;10644;48.834;10.088;2024-03-08T05:01:33;96370.72;;;4.39;67.84
20971;BME280;10644;48.834;10.088;2024-03-08T05:03:58;96354.63;;;4.40;68.06
20971;BME280;10644;48.834;10.088;2024-03-08T05:06:23;96358.72;;;4.44;67.63
20971;BME280;10644;48.834;10.088;2024-03-08T05:08:49;96370.06;;;4.80;67.21
20971;BME280;10644;48.834;10.088;2024-03-08T05:11:14;96360.47;;;4.88;66.07
20971;BME280;10644;48.834;10.088;2024-03-08T05:13:40;96368.34;;;4.59;66.88
20971;BME280;10644;48.834;10.088;2024-03-08T05:16:05;96355.53;;;4.39;67.93
20971;BME280;10644;48.834;10.088;2024-03-08T05:18:33;96340.03;;;4.24;68.45
20971;BME280;10644;48.834;10.088;2024-03-08T05:20:58;96354.97;;;4.31;68.15
20971;BME280;10644;48.834;10.088;2024-03-08T05:23:23;96351.09;;;4.21;68.72
20971;BME280;10644;48.834;10.088;2024-03-08T05:25:49;96350.09;;;4.02;69.52
20971;BME280;10644;48.834;10.088;2024-03-08T05:28:15;96335.78;;;4.24;68.65
20971;BME280;10644;48.834;10.088;2024-03-08T05:30:41;96338.53;;;4.41;68.55
20971;BME280;10644;48.834;10.088;2024-03-08T05:33:06;96348.25;;;4.30;68.31
20971;BME280;10644;48.834;10.088;2024-03-08T05:35:35;96339.06;;;4.03;69.39
20971;BME280;10644;48.834;10.088;2024-03-08T05:38:01;96343.50;;;4.21;68.70
20971;BME280;10644;48.834;10.088;2024-03-08T05:40:27;96335.59;;;4.30;68.35
20971;BME280;10644;48.834;10.088;2024-03-08T05:42:52;96327.53;;;4.42;67.76
20971;BME280;10644;48.834;10.088;2024-03-08T05:45:17;96334.50;;;4.37;67.88
20971;BME280;10644;48.834;10.088;2024-03-08T05:47:43;96337.56;;;4.22;68.29
20971;BME280;10644;48.834;10.088;2024-03-08T05:50:09;96340.09;;;4.45;68.11
20971;BME280;10644;48.834;10.088;2024-03-08T05:52:36;96332.44;;;4.47;67.70
20971;BME280;10644;48.834;10.088;2024-03-08T05:55:03;96325.59;;;4.49;67.43
20971;BME280;10644;48.834;10.088;2024-03-08T05:57:28;96331.16;;;4.35;68.35
20971;BME280;10644;48.834;10.088;2024-03-08T05:59:53;96338.97;;;4.52;67.46
20971;BME280;10644;48.834;10.088;2024-03-08T06:02:19;96337.94;;;4.35;67.64
20971;BME280;10644;48.834;10.088;2024-03-08T06:04:47;96336.22;;;4.12;68.51
20971;BME280;10644;48.834;10.088;2024-03-08T06:07:12;96339.09;;;4.26;68.22
20971;BME280;10644;48.834;10.088;2024-03-08T06:09:38;96331.56;;;4.00;69.11
20971;BME280;10644;48.834;10.088;2024-03-08T06:12:03;96341.19;;;3.66;70.54
20971;BME280;10644;48.834;10.088;2024-03-08T06:14:31;96339.59;;;3.62;71.03
20971;BME280;10644;48.834;10.088;2024-03-08T06:16:56;96337.72;;;3.93;72.44
20971;BME280;10644;48.834;10.088;2024-03-08T06:19:22;96336.09;;;3.92;70.28
20971;BME280;10644;48.834;10.088;2024-03-08T06:21:48;96336.75;;;3.97;70.13
20971;BME280;10644;48.834;10.088;2024-03-08T06:24:13;96321.78;;;3.91;69.59
20971;BME280;10644;48.834;10.088;2024-03-08T06:26:40;96354.50;;;3.97;69.57
20971;BME280;10644;48.834;10.088;2024-03-08T06:29:06;96344.25;;;4.23;68.43
20971;BME280;10644;48.834;10.088;2024-03-08T06:31:32;96347.47;;;4.28;68.04
20971;BME280;10644;48.834;10.088;2024-03-08T06:33:57;96329.19;;;4.20;68.03
20971;BME280;10644;48.834;10.088;2024-03-08T06:36:23;96353.81;;;4.17;67.79
20971;BME280;10644;48.834;10.088;2024-03-08T06:38:49;96342.75;;;4.42;68.65
20971;BME280;10644;48.834;10.088;2024-03-08T06:41:14;96343.63;;;4.87;66.84
20971;BME280;10644;48.834;10.088;2024-03-08T06:43:46;96348.19;;;4.78;66.53
20971;BME280;10644;48.834;10.088;2024-03-08T06:46:12;96338.44;;;4.44;67.25
20971;BME280;10644;48.834;10.088;2024-03-08T06:48:38;96338.53;;;4.41;67.49
20971;BME280;10644;48.834;10.088;2024-03-08T06:51:06;96337.03;;;4.37;67.05
20971;BME280;10644;48.834;10.088;2024-03-08T06:53:32;96336.75;;;4.22;67.91
20971;BME280;10644;48.834;10.088;2024-03-08T06:56:00;96344.22;;;4.48;67.49
20971;BME280;10644;48.834;10.088;2024-03-08T06:58:26;96350.78;;;4.30;67.27
20971;BME280;10644;48.834;10.088;2024-03-08T07:00:52;96341.06;;;4.18;67.86
20971;BME280;10644;48.834;10.088;2024-03-08T07:03:18;96327.91;;;4.32;68.77
20971;BME280;10644;48.834;10.088;2024-03-08T07:05:44;96328.53;;;4.38;67.71
20971;BME280;10644;48.834;10.088;2024-03-08T07:08:14;96344.06;;;4.52;67.13
20971;BME280;10644;48.834;10.088;2024-03-08T07:10:40;96353.66;;;4.44;67.13
20971;BME280;10644;48.834;10.088;2024-03-08T07:13:10;96337.56;;;4.22;67.10
20971;BME280;10644;48.834;10.088;2024-03-08T07:15:36;96343.25;;;4.29;67.43
20971;BME280;10644;48.834;10.088;2024-03-08T07:18:03;96337.59;;;4.44;67.06
20971;BME280;10644;48.834;10.088;2024-03-08T07:20:29;96336.34;;;4.55;66.33
20971;BME280;10644;48.834;10.088;2024-03-08T07:22:54;96343.06;;;4.56;66.63
20971;BME280;10644;48.834;10.088;2024-03-08T07:25:20;96319.31;;;4.13;67.40
20971;BME280;10644;48.834;10.088;2024-03-08T07:27:55;96321.91;;;4.34;67.02
20971;BME280;10644;48.834;10.088;2024-03-08T07:30:22;96318.00;;;4.26;67.58
20971;BME280;10644;48.834;10.088;2024-03-08T07:33:06;96322.91;;;4.30;67.72
20971;BME280;10644;48.834;10.088;2024-03-08T07:35:32;96321.09;;;4.34;67.78
20971;BME280;10644;48.834;10.088;2024-03-08T07:38:03;96306.19;;;4.48;67.04
20971;BME280;10644;48.834;10.088;2024-03-08T07:40:29;96314.75;;;4.22;67.94
20971;BME280;10644;48.834;10.088;2024-03-08T07:42:57;96316.97;;;4.31;68.17
20971;BME280;10644;48.834;10.088;2024-03-08T07:45:23;96303.84;;;4.43;67.58
20971;BME280;10644;48.834;10.088;2024-03-08T07:47:49;96314.75;;;4.45;67.44
20971;BME280;10644;48.834;10.088;2024-03-08T07:50:16;96308.13;;;4.41;68.03
20971;BME280;10644;48.834;10.088;2024-03-08T07:52:41;96309.75;;;4.88;68.99
20971;BME280;10644;48.834;10.088;2024-03-08T07:55:07;96312.88;;;5.16;66.47
20971;BME280;10644;48.834;10.088;2024-03-08T07:57:33;96305.19;;;4.96;65.99
20971;BME280;10644;48.834;10.088;2024-03-08T07:59:58;96299.00;;;5.03;69.05
20971;BME280;10644;48.834;10.088;2024-03-08T08:02:26;96292.84;;;5.30;65.71
20971;BME280;10644;48.834;10.088;2024-03-08T08:04:52;96304.97;;;5.44;65.30
20971;BME280;10644;48.834;10.088;2024-03-08T08:07:17;96295.13;;;5.36;64.26
20971;BME280;10644;48.834;10.088;2024-03-08T08:09:42;96304.91;;;5.04;65.21
20971;BME280;10644;48.834;10.088;2024-03-08T08:12:08;96305.31;;;4.93;65.48
20971;BME280;10644;48.834;10.088;2024-03-08T08:14:37;96301.59;;;4.80;66.00
20971;BME280;10644;48.834;10.088;2024-03-08T08:17:06;96294.28;;;4.94;66.24
20971;BME280;10644;48.834;10.088;2024-03-08T08:19:34;96295.59;;;5.04;65.83
20971;BME280;10644;48.834;10.088;2024-03-08T08:22:03;96293.81;;;5.06;65.76
20971;BME280;10644;48.834;10.088;2024-03-08T08:24:28;96283.75;;;5.03;65.86
20971;BME280;10644;48.834;10.088;2024-03-08T08:26:56;96282.81;;;5.06;65.64
20971;BME280;10644;48.834;10.088;2024-03-08T08:29:21;96286.06;;;5.51;65.15
20971;BME280;10644;48.834;10.088;2024-03-08T08:31:48;96287.41;;;5.39;64.78
20971;BME280;10644;48.834;10.088;2024-03-08T08:34:17;96282.69;;;5.30;64.70
20971;BME280;10644;48.834;10.088;2024-03-08T08:36:44;96276.97;;;5.25;64.69
20971;BME280;10644;48.834;10.088;2024-03-08T08:39:10;96273.88;;;5.39;64.81
20971;BME280;10644;48.834;10.088;2024-03-08T08:41:39;96274.06;;;5.34;65.08
20971;BME280;10644;48.834;10.088;2024-03-08T08:44:04;96261.97;;;5.41;64.07
20971;BME280;10644;48.834;10.088;2024-03-08T08:46:29;96266.94;;;5.22;65.14
20971;BME280;10644;48.834;10.088;2024-03-08T08:48:55;96277.03;;;5.24;64.82
20971;BME280;10644;48.834;10.088;2024-03-08T08:51:21;96265.94;;;5.26;65.21
20971;BME280;10644;48.834;10.088;2024-03-08T08:53:48;96263.72;;;5.19;65.02
20971;BME280;10644;48.834;10.088;2024-03-08T08:56:15;96283.66;;;5.06;65.66
20971;BME280;10644;48.834;10.088;2024-03-08T08:58:44;96276.63;;;5.54;64.45
20971;BME280;10644;48.834;10.088;2024-03-08T09:01:09;96272.16;;;5.81;63.54
20971;BME280;10644;48.834;10.088;2024-03-08T09:03:38;96260.00;;;5.87;62.78
20971;BME280;10644;48.834;10.088;2024-03-08T09:06:09;96269.59;;;5.81;62.66
20971;BME280;10644;48.834;10.088;2024-03-08T09:08:41;96265.31;;;5.61;63.70
20971;BME280;10644;48.834;10.088;2024-03-08T09:11:07;96258.44;;;5.23;64.98
20971;BME280;10644;48.834;10.088;2024-03-08T09:13:33;96260.13;;;5.03;66.36
20971;BME280;10644;48.834;10.088;2024-03-08T09:16:02;96256.09;;;4.97;65.84
20971;BME280;10644;48.834;10.088;2024-03-08T09:18:28;96257.63;;;5.01;66.04
20971;BME280;10644;48.834;10.088;2024-03-08T09:20:54;96265.84;;;5.28;65.53
20971;BME280;10644;48.834;10.088;2024-03-08T09:23:23;96253.88;;;5.31;64.80
20971;BME280;10644;48.834;10.088;2024-03-08T09:25:49;96259.41;;;5.41;65.30
20971;BME280;10644;48.834;10.088;2024-03-08T09:28:14;96248.31;;;5.43;67.69
20971;BME280;10644;48.834;10.088;2024-03-08T09:30:39;96248.56;;;5.77;64.26
20971;BME280;10644;48.834;10.088;2024-03-08T09:33:05;96246.00;;;5.97;63.77
20971;BME280;10644;48.834;10.088;2024-03-08T09:35:31;96254.66;;;5.93;63.41
20971;BME280;10644;48.834;10.088;2024-03-08T09:37:57;96250.13;;;6.00;63.06
20971;BME280;10644;48.834;10.088;2024-03-08T09:40:30;96247.81;;;5.95;63.47
20971;BME280;10644;48.834;10.088;2024-03-08T09:42:55;96234.75;;;6.21;66.35
20971;BME280;10644;48.834;10.088;2024-03-08T09:45:24;96237.75;;;7.54;65.40
20971;BME280;10644;48.834;10.088;2024-03-08T09:47:50;96233.81;;;7.81;59.35
20971;BME280;10644;48.834;10.088;2024-03-08T09:50:17;96226.03;;;7.67;60.06
20971;BME280;10644;48.834;10.088;2024-03-08T09:52:48;96220.75;;;7.55;59.39
20971;BME280;10644;48.834;10.088;2024-03-08T09:55:15;96215.34;;;7.61;61.31
20971;BME280;10644;48.834;10.088;2024-03-08T09:57:43;96216.09;;;7.95;58.35
20971;BME280;10644;48.834;10.088;2024-03-08T10:00:29;96222.31;;;8.70;59.57
20971;BME280;10644;48.834;10.088;2024-03-08T10:02:54;96207.59;;;9.05;56.12
20971;BME280;10644;48.834;10.088;2024-03-08T10:05:25;96209.13;;;8.62;55.61
20971;BME280;10644;48.834;10.088;2024-03-08T10:07:50;96200.97;;;8.25;56.27
20971;BME280;10644;48.834;10.088;2024-03-08T10:10:16;96210.06;;;8.13;57.21
20971;BME280;10644;48.834;10.088;2024-03-08T10:12:41;96203.69;;;8.22;57.04
20971;BME280;10644;48.834;10.088;2024-03-08T10:15:07;96198.84;;;8.00;57.73
20971;BME280;10644;48.834;10.088;2024-03-08T10:17:34;96198.38;;;8.09;57.57
20971;BME280;10644;48.834;10.088;2024-03-08T10:20:13;96203.47;;;8.09;57.19
20971;BME280;10644;48.834;10.088;2024-03-08T10:22:40;96202.72;;;8.07;56.50
20971;BME280;10644;48.834;10.088;2024-03-08T10:25:09;96200.78;;;7.95;57.02
20971;BME280;10644;48.834;10.088;2024-03-08T10:27:35;96211.91;;;7.94;57.34
20971;BME280;10644;48.834;10.088;2024-03-08T10:30:01;96202.56;;;8.10;57.32
20971;BME280;10644;48.834;10.088;2024-03-08T10:32:26;96197.84;;;8.35;56.39
20971;BME280;10644;48.834;10.088;2024-03-08T10:34:55;96206.66;;;8.45;58.28
20971;BME280;10644;48.834;10.088;2024-03-08T10:37:21;96201.00;;;9.16;56.78
20971;BME280;10644;48.834;10.088;2024-03-08T10:40:02;96190.84;;;9.44;54.84
20971;BME280;10644;48.834;10.088;2024-03-08T10:42:53;96195.25;;;9.56;54.33
20971;BME280;10644;48.834;10.088;2024-03-08T10:45:30;96177.44;;;9.41;53.43
20971;BME280;10644;48.834;10.088;2024-03-08T10:50:44;96186.59;;;9.29;54.45
20971;BME280;10644;48.834;10.088;2024-03-08T10:53:17;96186.00;;;9.10;54.28
20971;BME280;10644;48.834;10.088;2024-03-08T10:55:44;96181.84;;;9.23;54.57
20971;BME280;10644;48.834;10.088;2024-03-08T10:58:11;96180.38;;;9.63;54.15
20971;BME280;10644;48.834;10.088;2024-03-08T11:00:36;96177.72;;;9.92;53.62
20971;BME280;10644;48.834;10.088;2024-03-08T11:03:06;96172.63;;;9.92;52.35
20971;BME280;10644;48.834;10.088;2024-03-08T11:08:01;96169.53;;;10.01;53.71
20971;BME280;10644;48.834;10.088;2024-03-08T11:10:27;96150.06;;;10.41;52.03
20971;BME280;10644;48.834;10.088;2024-03-08T11:12:55;96150.88;;;10.94;50.80
20971;BME280;10644;48.834;10.088;2024-03-08T11:15:21;96146.38;;;11.10;51.02
20971;BME280;10644;48.834;10.088;2024-03-08T11:17:49;96142.94;;;11.11;50.21
20971;BME280;10644;48.834;10.088;2024-03-08T11:20:19;96136.34;;;11.07;50.63
20971;BME280;10644;48.834;10.088;2024-03-08T11:25:40;96132.72;;;10.97;49.94
20971;BME280;10644;48.834;10.088;2024-03-08T11:28:20;96116.56;;;10.70;50.76
20971;BME280;10644;48.834;10.088;2024-03-08T11:33:36;96122.34;;;10.86;49.70
20971;BME280;10644;48.834;10.088;2024-03-08T11:36:12;96117.84;;;10.77;50.54
20971;BME280;10644;48.834;10.088;2024-03-08T11:38:47;96120.72;;;10.85;50.19
20971;BME280;10644;48.834;10.088;2024-03-08T11:41:14;96105.13;;;10.49;50.04
20971;BME280;10644;48.834;10.088;2024-03-08T11:43:40;96098.25;;;10.50;50.39
20971;BME280;10644;48.834;10.088;2024-03-08T11:46:16;96111.03;;;10.64;50.46
20971;BME280;10644;48.834;10.088;2024-03-08T11:48:44;96099.50;;;10.83;49.18
20971;BME280;10644;48.834;10.088;2024-03-08T11:51:12;96091.69;;;11.36;49.98
20971;BME280;10644;48.834;10.088;2024-03-08T11:53:38;96086.13;;;11.30;48.41
20971;BME280;10644;48.834;10.088;2024-03-08T11:56:12;96085.31;;;11.42;49.42
20971;BME280;10644;48.834;10.088;2024-03-08T11:58:38;96083.81;;;11.64;49.46
20971;BME280;10644;48.834;10.088;2024-03-08T12:01:06;96077.03;;;12.12;47.83
20971;BME280;10644;48.834;10.088;2024-03-08T12:03:35;96079.09;;;12.66;48.03
20971;BME280;10644;48.834;10.088;2024-03-08T12:06:01;96063.78;;;13.23;48.08
20971;BME280;10644;48.834;10.088;2024-03-08T12:08:27;96062.94;;;13.11;45.64
20971;BME280;10644;48.834;10.088;2024-03-08T12:10:55;96056.25;;;12.74;46.37
20971;BME280;10644;48.834;10.088;2024-03-08T12:13:32;96060.44;;;12.99;47.21
20971;BME280;10644;48.834;10.088;2024-03-08T12:15:59;96042.59;;;13.08;46.22
20971;BME280;10644;48.834;10.088;2024-03-08T12:18:26;96053.78;;;13.07;45.84
20971;BME280;10644;48.834;10.088;2024-03-08T12:21:10;96042.88;;;13.38;46.81
20971;BME280;10644;48.834;10.088;2024-03-08T12:23:36;96038.22;;;13.76;45.40
20971;BME280;10644;48.834;10.088;2024-03-08T12:26:12;96027.44;;;13.93;45.31
20971;BME280;10644;48.834;10.088;2024-03-08T12:28:40;96037.56;;;14.05;44.03
20971;BME280;10644;48.834;10.088;2024-03-08T12:31:07;96032.53;;;14.15;42.85
20971;BME280;10644;48.834;10.088;2024-03-08T12:33:52;96030.00;;;13.93;43.81
20971;BME280;10644;48.834;10.088;2024-03-08T12:36:18;96021.00;;;13.43;44.59
20971;BME280;10644;48.834;10.088;2024-03-08T12:38:48;96010.81;;;13.09;44.94
20971;BME280;10644;48.834;10.088;2024-03-08T12:41:18;96008.28;;;13.42;44.93
20971;BME280;10644;48.834;10.088;2024-03-08T12:43:44;96017.63;;;13.32;44.41
20971;BME280;10644;48.834;10.088;2024-03-08T12:46:17;96011.75;;;13.74;44.24
20971;BME280;10644;48.834;10.088;2024-03-08T12:48:43;96003.16;;;14.17;44.36
20971;BME280;10644;48.834;10.088;2024-03-08T12:51:13;96000.34;;;14.52;44.20
20971;BME280;10644;48.834;10.088;2024-03-08T12:53:38;95989.06;;;14.84;44.11
20971;BME280;10644;48.834;10.088;2024-03-08T12:56:08;95971.78;;;14.96;42.88
20971;BME280;10644;48.834;10.088;2024-03-08T12:58:35;95975.38;;;14.84;42.60
20971;BME280;10644;48.834;10.088;2024-03-08T13:01:02;95960.50;;;14.97;43.98
20971;BME280;10644;48.834;10.088;2024-03-08T13:03:30;95986.75;;;15.32;41.97
20971;BME280;10644;48.834;10.088;2024-03-08T13:05:55;95962.06;;;15.59;41.58
20971;BME280;10644;48.834;10.088;2024-03-08T13:08:22;95967.69;;;15.74;41.43